Time;durP1;ratioP1;P1;durP2;ratioP2;P2;SDS_P1;SDS_P2;PMS_P1;PMS_P2;Temp;Humidity;BMP_temperature;BMP_pressure;BME280_temperature;BME280_humidity;BME280_pressure;Samples;Min_cycle;Max_cycle;Signal;HPM_P1;HPM_P2
2023/08/26 00:00:24;;;;;;;21.80;16.65;;;;;;;18.93;76.00;100870.13;5068294;28;20402;-65
2023/08/26 00:02:49;;;;;;;25.88;16.75;;;;;;;18.90;76.28;100874.38;5062078;28;20103;-65
2023/08/26 00:05:14;;;;;;;19.65;16.23;;;;;;;18.89;75.68;100867.09;5056599;28;20427;-65
2023/08/26 00:07:40;;;;;;;18.83;14.98;;;;;;;18.93;75.76;100873.75;5051190;28;20495;-66
2023/08/26 00:10:06;;;;;;;17.42;13.23;;;;;;;18.85;74.32;100863.22;5051853;28;20037;-65
2023/08/26 00:12:31;;;;;;;18.55;12.57;;;;;;;18.83;73.75;100871.97;5051838;28;20020;-65
2023/08/26 00:14:56;;;;;;;14.55;10.60;;;;;;;18.85;72.97;100877.28;5051132;28;20036;-66
2023/08/26 00:17:22;;;;;;;12.20;8.88;;;;;;;18.82;71.19;100872.28;5051427;28;20080;-65
2023/08/26 00:19:47;;;;;;;11.98;8.30;;;;;;;18.68;71.30;100868.56;5050712;28;20039;-65
2023/08/26 00:22:12;;;;;;;10.85;8.68;;;;;;;18.67;71.32;100875.31;5050993;28;20063;-66
2023/08/26 00:24:37;;;;;;;13.27;8.32;;;;;;;18.59;71.25;100874.06;5051912;28;20488;-65
2023/08/26 00:27:03;;;;;;;13.55;8.13;;;;;;;18.60;71.45;100872.91;5050861;28;20354;-65
2023/08/26 00:29:29;;;;;;;15.32;8.15;;;;;;;18.60;71.55;100870.94;5051637;28;20021;-65
2023/08/26 00:31:54;;;;;;;12.75;8.23;;;;;;;18.51;71.67;100874.72;5051521;28;20025;-65
2023/08/26 00:34:19;;;;;;;11.70;7.65;;;;;;;18.51;71.23;100871.91;5050618;28;20029;-65
2023/08/26 00:36:45;;;;;;;11.13;7.55;;;;;;;18.49;71.54;100872.25;5050792;28;20037;-65
2023/08/26 00:39:10;;;;;;;11.52;6.63;;;;;;;18.55;71.36;100868.22;5058322;28;20136;-66
2023/08/26 00:41:36;;;;;;;11.45;7.20;;;;;;;18.49;71.04;100863.81;5050873;28;20392;-66
2023/08/26 00:44:01;;;;;;;12.00;6.80;;;;;;;18.43;70.55;100870.66;5051445;28;20037;-66
2023/08/26 00:46:26;;;;;;;9.55;6.53;;;;;;;18.44;70.91;100865.88;5051524;28;20025;-65
2023/08/26 00:48:52;;;;;;;9.40;6.47;;;;;;;18.43;70.78;100869.81;5050706;28;20029;-65
2023/08/26 00:51:19;;;;;;;10.43;6.05;;;;;;;18.39;70.83;100867.63;5052779;28;20392;-65
2023/08/26 00:53:45;;;;;;;10.60;6.50;;;;;;;18.33;70.78;100871.66;5066881;28;20029;-66
2023/08/26 00:56:11;;;;;;;11.90;5.60;;;;;;;18.32;70.12;100872.78;5070946;28;20041;-65
2023/08/26 00:58:36;;;;;;;9.23;5.07;;;;;;;18.26;70.27;100876.81;5071576;28;20029;-66
2023/08/26 01:01:03;;;;;;;10.55;5.35;;;;;;;18.25;70.13;100875.16;5071425;28;20025;-65
2023/08/26 01:03:28;;;;;;;10.25;4.97;;;;;;;18.17;70.05;100875.84;5070786;28;20049;-66
2023/08/26 01:05:53;;;;;;;6.40;3.90;;;;;;;18.19;69.19;100886.75;5071363;28;20469;-65
2023/08/26 01:08:19;;;;;;;8.07;4.05;;;;;;;18.08;68.93;100872.03;5064385;28;20443;-65
2023/08/26 01:11:22;;;;;;;11.18;3.85;;;;;;;18.03;69.96;100877.72;5050588;28;20476;-65
2023/08/26 01:14:12;;;;;;;7.18;3.95;;;;;;;18.06;69.65;100879.91;5051228;28;20033;-65
2023/08/26 01:16:40;;;;;;;10.00;3.70;;;;;;;17.95;68.40;100876.41;5050540;28;20067;-65
2023/08/26 01:19:10;;;;;;;7.40;3.35;;;;;;;17.89;68.62;100877.63;5051062;28;20025;-65
2023/08/26 01:21:37;;;;;;;5.97;3.40;;;;;;;17.96;68.42;100875.31;5050958;28;20211;-65
2023/08/26 01:24:04;;;;;;;8.07;3.45;;;;;;;18.00;68.45;100886.75;5051314;28;20100;-65
2023/08/26 01:26:30;;;;;;;4.20;3.05;;;;;;;17.87;68.03;100880.72;5070119;28;20035;-65
2023/08/26 01:28:55;;;;;;;11.23;3.78;;;;;;;17.86;68.41;100890.31;5071043;28;20028;-65
2023/08/26 01:31:22;;;;;;;6.72;3.10;;;;;;;17.75;67.89;100891.56;5070796;28;20526;-65
2023/08/26 01:33:54;;;;;;;9.70;3.80;;;;;;;17.71;68.12;100884.03;5074782;28;20033;-65
2023/08/26 01:36:23;;;;;;;7.40;3.88;;;;;;;17.63;68.06;100880.72;5074789;28;20029;-65
2023/08/26 01:38:50;;;;;;;7.88;3.03;;;;;;;17.73;68.10;100888.22;5073902;28;20060;-66
2023/08/26 01:41:19;;;;;;;6.75;3.15;;;;;;;17.67;67.98;100884.63;5063467;28;20480;-66
2023/08/26 01:43:46;;;;;;;6.20;3.40;;;;;;;17.59;68.14;100881.63;5054895;28;20116;-65
2023/08/26 01:46:12;;;;;;;5.25;3.20;;;;;;;17.57;67.72;100887.56;5053821;28;20044;-65
2023/08/26 01:48:37;;;;;;;9.85;3.08;;;;;;;17.53;67.35;100880.88;5054748;28;20068;-65
2023/08/26 01:51:03;;;;;;;5.75;3.00;;;;;;;17.52;67.71;100886.78;5054219;28;20052;-65
2023/08/26 01:53:28;;;;;;;5.40;2.97;;;;;;;17.54;67.50;100876.94;5054025;28;20029;-65
2023/08/26 01:55:53;;;;;;;5.03;2.60;;;;;;;17.50;67.87;100889.06;5054281;28;20104;-65
2023/08/26 01:58:18;;;;;;;6.03;2.70;;;;;;;17.46;67.51;100883.19;5061252;28;20365;-65
2023/08/26 02:00:44;;;;;;;6.35;2.78;;;;;;;17.40;67.70;100893.63;5073884;28;20044;-66
2023/08/26 02:03:09;;;;;;;6.43;3.03;;;;;;;17.40;67.32;100888.03;5074105;28;20032;-65
2023/08/26 02:05:34;;;;;;;7.85;3.05;;;;;;;17.45;67.21;100886.28;5073420;28;20020;-65
2023/08/26 02:08:00;;;;;;;4.43;2.70;;;;;;;17.36;67.43;100886.13;5074035;28;20091;-66
2023/08/26 02:10:25;;;;;;;7.13;2.78;;;;;;;17.32;67.38;100882.22;5073800;28;20040;-65
2023/08/26 02:12:51;;;;;;;7.55;3.13;;;;;;;17.27;67.41;100877.53;5073646;28;20028;-65
2023/08/26 02:15:16;;;;;;;7.28;2.58;;;;;;;17.30;67.54;100874.13;5070838;28;20021;-66
2023/08/26 02:17:41;;;;;;;6.97;2.80;;;;;;;17.27;67.37;100879.50;5056377;28;20041;-66
2023/08/26 02:20:07;;;;;;;6.90;2.47;;;;;;;17.20;67.28;100887.41;5053237;28;20025;-66
2023/08/26 02:22:33;;;;;;;7.68;2.40;;;;;;;17.22;67.26;100883.19;5053903;28;20025;-65
2023/08/26 02:24:58;;;;;;;7.30;2.17;;;;;;;17.18;67.31;100877.34;5053761;28;20029;-65
2023/08/26 02:27:23;;;;;;;5.15;2.35;;;;;;;17.26;66.93;100881.47;5053138;28;20100;-65
2023/08/26 02:29:49;;;;;;;12.02;2.70;;;;;;;17.22;66.88;100886.00;5053911;28;20108;-65
2023/08/26 02:32:14;;;;;;;5.55;2.50;;;;;;;17.20;66.96;100870.59;5057483;28;20025;-65
2023/08/26 02:34:39;;;;;;;5.15;2.25;;;;;;;17.16;66.96;100875.94;5066612;28;20036;-65
2023/08/26 02:37:05;;;;;;;5.95;2.50;;;;;;;17.10;66.96;100882.75;5070393;28;20161;-65
2023/08/26 02:39:30;;;;;;;7.07;2.50;;;;;;;17.10;66.95;100880.78;5060036;28;20400;-65
2023/08/26 02:41:55;;;;;;;9.35;2.40;;;;;;;17.03;66.73;100882.28;5053030;28;20031;-65
2023/08/26 02:44:20;;;;;;;6.68;2.22;;;;;;;16.97;66.90;100884.28;5052927;28;20033;-65
2023/08/26 02:46:46;;;;;;;4.55;2.25;;;;;;;17.03;66.73;100887.88;5053691;28;20472;-65
2023/08/26 02:49:11;;;;;;;5.35;2.30;;;;;;;16.99;67.26;100884.00;5067739;28;20491;-65
2023/08/26 02:51:36;;;;;;;5.50;2.55;;;;;;;16.99;67.11;100876.41;5073330;28;20016;-65
2023/08/26 02:54:02;;;;;;;6.68;2.20;;;;;;;16.91;66.87;100877.88;5073194;28;20024;-65
2023/08/26 02:56:27;;;;;;;7.53;2.90;;;;;;;16.96;67.13;100877.00;5072489;28;20112;-65
2023/08/26 02:58:52;;;;;;;8.90;2.83;;;;;;;16.86;66.86;100875.16;5073028;28;20037;-65
2023/08/26 03:01:18;;;;;;;5.95;2.20;;;;;;;16.96;67.15;100874.19;5073202;28;20028;-66
2023/08/26 03:03:43;;;;;;;5.72;2.60;;;;;;;16.97;66.88;100875.03;5070506;28;20044;-65
2023/08/26 03:06:08;;;;;;;4.97;2.05;;;;;;;16.85;67.00;100884.66;5070901;28;20033;-65
2023/08/26 03:08:34;;;;;;;5.88;2.40;;;;;;;16.85;66.92;100879.06;5072060;28;20082;-65
2023/08/26 03:11:07;;;;;;;6.78;2.33;;;;;;;16.81;66.50;100883.56;5072791;28;20024;-65
2023/08/26 03:13:33;;;;;;;5.38;2.50;;;;;;;16.77;66.94;100874.09;5072726;28;20460;-65
2023/08/26 03:16:06;;;;;;;7.15;2.13;;;;;;;16.75;67.08;100878.34;5071869;28;20082;-67
2023/08/26 03:18:31;;;;;;;6.85;2.30;;;;;;;16.76;66.96;100880.84;5072622;28;20048;-66
2023/08/26 03:21:05;;;;;;;3.45;2.08;;;;;;;16.71;67.05;100885.63;5072753;28;20035;-66
2023/08/26 03:23:30;;;;;;;7.45;2.47;;;;;;;16.65;66.69;100879.22;5068773;28;20361;-66
2023/08/26 03:25:55;;;;;;;7.60;2.60;;;;;;;16.71;66.85;100880.84;5072862;28;20103;-66
2023/08/26 03:28:21;;;;;;;8.13;2.40;;;;;;;16.65;66.98;100882.84;5072868;28;20059;-66
2023/08/26 03:30:46;;;;;;;6.72;2.42;;;;;;;16.59;67.07;100883.19;5071907;28;20073;-66
2023/08/26 03:33:11;;;;;;;4.88;2.20;;;;;;;16.65;67.09;100887.63;5072499;28;20107;-66
2023/08/26 03:35:40;;;;;;;5.22;2.30;;;;;;;16.60;67.18;100888.50;5072554;28;20036;-65
2023/08/26 03:38:06;;;;;;;6.53;2.47;;;;;;;16.66;67.20;100884.53;5071674;28;20156;-65
2023/08/26 03:40:31;;;;;;;3.85;2.33;;;;;;;16.57;67.37;100880.66;5062280;28;20039;-65
2023/08/26 03:42:56;;;;;;;6.50;2.85;;;;;;;16.50;67.15;100890.53;5052473;28;20039;-65
2023/08/26 03:45:22;;;;;;;5.53;2.55;;;;;;;16.41;67.39;100882.75;5051637;28;20024;-65
2023/08/26 03:47:47;;;;;;;3.90;2.15;;;;;;;16.39;67.36;100893.44;5052376;28;20033;-65
2023/08/26 03:50:12;;;;;;;6.15;2.55;;;;;;;16.35;67.55;100894.31;5052442;28;20158;-65
2023/08/26 03:52:38;;;;;;;7.90;2.72;;;;;;;16.35;67.69;100888.72;5051528;28;20028;-65
2023/08/26 03:55:04;;;;;;;5.53;2.28;;;;;;;16.38;67.73;100894.53;5051760;28;20025;-65
2023/08/26 03:57:29;;;;;;;4.85;2.47;;;;;;;16.40;67.69;100891.47;5054605;28;20066;-65
2023/08/26 03:59:55;;;;;;;5.50;2.53;;;;;;;16.34;67.62;100899.06;5070706;28;20029;-65
2023/08/26 04:02:20;;;;;;;6.57;2.53;;;;;;;16.33;67.86;100903.00;5072155;28;20060;-65
2023/08/26 04:04:45;;;;;;;6.97;2.50;;;;;;;16.30;67.64;100892.34;5071341;28;20115;-65
2023/08/26 04:07:11;;;;;;;5.57;2.40;;;;;;;16.32;67.87;100894.88;5071970;28;20115;-65
2023/08/26 04:09:36;;;;;;;7.30;2.35;;;;;;;16.23;67.80;100903.06;5071824;28;20020;-65
2023/08/26 04:12:02;;;;;;;7.13;2.42;;;;;;;16.21;67.98;100905.31;5070900;28;20034;-65
2023/08/26 04:14:28;;;;;;;6.15;2.67;;;;;;;16.20;67.90;100906.44;5067790;28;20024;-65
2023/08/26 04:16:53;;;;;;;5.80;2.75;;;;;;;16.15;67.96;100909.25;5071473;28;20067;-65
2023/08/26 04:19:18;;;;;;;6.22;2.80;;;;;;;16.13;67.98;100903.13;5070998;28;20042;-65
2023/08/26 04:21:44;;;;;;;5.60;2.45;;;;;;;16.17;68.24;100913.44;5071512;28;20464;-65
2023/08/26 04:24:09;;;;;;;6.78;2.55;;;;;;;16.16;68.24;100909.00;5071594;28;20035;-65
2023/08/26 04:26:35;;;;;;;6.20;2.70;;;;;;;16.20;68.16;100921.28;5071071;28;20047;-65
2023/08/26 04:29:00;;;;;;;2.50;2.17;;;;;;;16.07;68.40;100921.06;5071527;28;20052;-65
2023/08/26 04:31:25;;;;;;;5.93;2.38;;;;;;;16.03;68.09;100932.00;5065209;28;20027;-66
2023/08/26 04:33:52;;;;;;;5.78;2.50;;;;;;;16.00;68.45;100926.16;5055739;28;20533;-65
2023/08/26 04:36:17;;;;;;;5.85;2.70;;;;;;;15.98;68.20;100929.25;5051375;28;20385;-65
2023/08/26 04:38:42;;;;;;;5.40;2.58;;;;;;;15.97;68.45;100929.53;5063131;28;20041;-65
2023/08/26 04:41:09;;;;;;;5.22;2.58;;;;;;;15.93;68.58;100927.31;5070857;28;20492;-65
2023/08/26 04:43:35;;;;;;;4.32;2.38;;;;;;;15.93;68.42;100934.88;5071200;28;20495;-65
2023/08/26 04:46:00;;;;;;;5.22;2.10;;;;;;;15.92;68.67;100939.63;5071311;28;20024;-65
2023/08/26 04:48:28;;;;;;;4.53;2.33;;;;;;;15.85;68.64;100939.09;5067849;28;20044;-65
2023/08/26 04:50:53;;;;;;;5.53;2.20;;;;;;;15.79;68.82;100939.41;5070329;28;20025;-65
2023/08/26 04:53:19;;;;;;;4.43;2.10;;;;;;;15.75;69.03;100941.94;5071361;28;20028;-65
2023/08/26 04:55:48;;;;;;;5.75;2.30;;;;;;;15.84;68.98;100940.22;5070514;28;20028;-65
2023/08/26 04:58:14;;;;;;;2.92;2.38;;;;;;;15.82;69.03;100950.88;5068909;28;20135;-65
2023/08/26 05:00:42;;;;;;;7.10;2.25;;;;;;;15.77;69.37;100950.88;5064376;28;20055;-66
2023/08/26 05:03:08;;;;;;;4.38;2.10;;;;;;;15.69;69.33;100952.31;5051582;28;20031;-65
2023/08/26 05:05:33;;;;;;;8.90;2.83;;;;;;;15.71;69.19;100958.44;5051222;28;20025;-66
2023/08/26 05:07:58;;;;;;;5.38;2.10;;;;;;;15.74;69.26;100959.00;5054301;28;20025;-66
2023/08/26 05:10:23;;;;;;;5.90;1.90;;;;;;;15.72;69.34;100959.31;5054623;28;20469;-65
2023/08/26 05:12:49;;;;;;;6.65;2.30;;;;;;;15.69;69.66;100962.69;5055278;28;20103;-65
2023/08/26 05:15:14;;;;;;;6.32;2.38;;;;;;;15.72;69.59;100964.91;5054301;28;20417;-65
2023/08/26 05:17:39;;;;;;;4.25;2.20;;;;;;;15.74;69.55;100959.84;5056010;28;20087;-65
2023/08/26 05:20:05;;;;;;;5.15;2.63;;;;;;;15.69;69.94;100963.50;5073864;28;20037;-66
2023/08/26 05:22:31;;;;;;;5.88;2.20;;;;;;;15.76;69.85;100960.41;5074217;28;20040;-65
2023/08/26 05:24:56;;;;;;;4.53;2.42;;;;;;;15.80;69.50;100957.84;5074808;28;20024;-65
2023/08/26 05:27:22;;;;;;;7.68;2.45;;;;;;;15.76;69.72;100960.41;5074874;28;20032;-65
2023/08/26 05:29:48;;;;;;;5.35;2.20;;;;;;;15.89;69.58;100965.41;5072110;28;20119;-65
2023/08/26 05:32:13;;;;;;;4.40;2.10;;;;;;;15.83;69.44;100966.53;5058134;28;20123;-65
2023/08/26 05:34:38;;;;;;;4.88;2.45;;;;;;;15.79;69.76;100962.63;5054669;28;20078;-65
2023/08/26 05:37:05;;;;;;;6.68;2.45;;;;;;;15.78;69.93;100960.13;5054113;28;20108;-65
2023/08/26 05:39:30;;;;;;;5.22;2.22;;;;;;;15.81;69.73;100960.38;5054595;28;20040;-65
2023/08/26 05:41:55;;;;;;;8.02;2.60;;;;;;;15.73;70.01;100955.38;5054689;28;20401;-65
2023/08/26 05:44:20;;;;;;;7.05;2.88;;;;;;;15.82;69.83;100959.25;5053825;28;20470;-65
2023/08/26 05:46:46;;;;;;;7.30;3.00;;;;;;;15.78;69.84;100958.16;5056047;28;20028;-65
2023/08/26 05:49:11;;;;;;;7.05;2.85;;;;;;;15.79;70.02;100954.22;5074445;28;20036;-65
2023/08/26 05:51:37;;;;;;;8.40;2.80;;;;;;;15.80;69.77;100947.53;5073782;28;20025;-65
2023/08/26 05:54:02;;;;;;;6.82;3.47;;;;;;;15.80;70.18;100941.06;5074363;28;20107;-65
2023/08/26 05:56:28;;;;;;;5.28;3.10;;;;;;;15.81;70.00;100952.00;5074469;28;20066;-65
2023/08/26 05:58:53;;;;;;;9.48;2.95;;;;;;;15.83;69.96;100948.91;5073435;28;20048;-65
2023/08/26 06:01:18;;;;;;;9.02;3.33;;;;;;;15.88;70.36;100946.94;5074265;28;20071;-65
2023/08/26 06:03:43;;;;;;;7.13;3.30;;;;;;;15.85;70.28;100953.09;5071236;28;20057;-65
2023/08/26 06:06:09;;;;;;;8.73;3.65;;;;;;;15.89;70.05;100948.59;5072347;28;20089;-65
2023/08/26 06:08:34;;;;;;;6.78;3.55;;;;;;;15.94;69.89;100951.38;5074158;28;20746;-65
2023/08/26 06:10:59;;;;;;;6.32;3.47;;;;;;;16.05;69.87;100952.16;5074039;28;20036;-65
2023/08/26 06:13:25;;;;;;;7.25;3.20;;;;;;;16.04;69.54;100944.06;5073355;28;20488;-65
2023/08/26 06:15:54;;;;;;;7.72;3.60;;;;;;;16.04;69.62;100944.91;5074063;28;20079;-65
2023/08/26 06:18:20;;;;;;;5.78;3.65;;;;;;;16.07;69.73;100943.47;5072413;28;20079;-66
2023/08/26 06:20:45;;;;;;;8.07;3.50;;;;;;;16.18;69.35;100936.69;5065070;28;20052;-66
2023/08/26 06:23:10;;;;;;;6.13;3.33;;;;;;;16.17;69.34;100935.03;5074264;28;20025;-65
2023/08/26 06:25:35;;;;;;;8.73;3.63;;;;;;;16.25;69.19;100937.22;5073203;28;20403;-66
2023/08/26 06:28:01;;;;;;;7.30;3.60;;;;;;;16.25;68.95;100944.78;5074061;28;20115;-66
2023/08/26 06:30:26;;;;;;;7.47;3.80;;;;;;;16.35;69.09;100939.97;5070865;28;20035;-65
2023/08/26 06:32:51;;;;;;;8.90;3.40;;;;;;;16.33;68.82;100938.56;5053441;28;20465;-65
2023/08/26 06:35:17;;;;;;;8.13;3.67;;;;;;;16.44;68.70;100941.00;5054019;28;20017;-66
2023/08/26 06:37:42;;;;;;;5.82;3.50;;;;;;;16.47;68.45;100945.22;5053730;28;20473;-65
2023/08/26 06:40:08;;;;;;;9.63;3.97;;;;;;;16.44;68.62;100946.63;5053100;28;20021;-66
2023/08/26 06:42:33;;;;;;;8.15;3.42;;;;;;;16.41;68.55;100946.34;5053486;28;20033;-65
2023/08/26 06:44:59;;;;;;;11.10;4.00;;;;;;;16.56;68.59;100945.44;5053774;28;20842;-65
2023/08/26 06:47:24;;;;;;;7.53;3.60;;;;;;;16.60;68.81;100930.53;5052675;28;20595;-65
2023/08/26 06:49:49;;;;;;;10.07;3.35;;;;;;;16.73;68.39;100931.00;5063621;28;20036;-66
2023/08/26 06:52:15;;;;;;;9.25;3.20;;;;;;;16.77;68.22;100932.13;5073696;28;20425;-65
2023/08/26 06:54:40;;;;;;;9.50;3.42;;;;;;;16.69;67.81;100930.75;5072759;28;20399;-65
2023/08/26 06:57:06;;;;;;;9.90;3.35;;;;;;;16.67;68.25;100925.44;5073433;28;20128;-65
2023/08/26 06:59:31;;;;;;;10.38;3.28;;;;;;;16.79;68.00;100936.31;5073169;28;20051;-66
2023/08/26 07:01:56;;;;;;;9.18;3.13;;;;;;;16.74;68.05;100933.56;5072624;28;20075;-66
2023/08/26 07:04:21;;;;;;;5.30;2.95;;;;;;;16.86;68.15;100939.63;5069814;28;20199;-65
2023/08/26 07:06:48;;;;;;;9.35;3.40;;;;;;;16.86;68.16;100948.03;5071490;28;20037;-65
2023/08/26 07:09:13;;;;;;;7.82;2.95;;;;;;;16.96;67.76;100937.84;5072607;28;20024;-65
2023/08/26 07:11:39;;;;;;;8.60;3.20;;;;;;;17.01;67.94;100947.03;5073246;28;20021;-65
2023/08/26 07:14:04;;;;;;;6.78;2.80;;;;;;;17.09;67.99;100940.78;5073191;28;20361;-65
2023/08/26 07:16:29;;;;;;;7.88;2.80;;;;;;;17.19;67.68;100951.09;5072421;28;20056;-65
2023/08/26 07:18:55;;;;;;;5.53;2.85;;;;;;;17.24;67.29;100939.81;5072843;28;20059;-67
2023/08/26 07:21:20;;;;;;;8.48;2.50;;;;;;;17.25;67.08;100941.50;5073197;28;20039;-66
2023/08/26 07:23:46;;;;;;;5.65;2.80;;;;;;;17.23;67.20;100945.75;5068356;28;20051;-65
2023/08/26 07:26:11;;;;;;;8.02;2.90;;;;;;;17.31;67.37;100951.53;5072947;28;20115;-65
2023/08/26 07:28:36;;;;;;;6.50;2.60;;;;;;;17.42;67.36;100949.47;5072811;28;20020;-66
2023/08/26 07:31:03;;;;;;;7.70;3.00;;;;;;;17.55;67.45;100942.31;5072067;28;20070;-65
2023/08/26 07:33:29;;;;;;;5.13;2.35;;;;;;;17.58;66.90;100950.97;5072783;28;20027;-65
2023/08/26 07:36:06;;;;;;;4.28;2.22;;;;;;;17.73;67.26;100944.34;5071904;28;20028;-66
2023/08/26 07:38:32;;;;;;;4.97;2.35;;;;;;;17.76;66.26;100943.75;5072741;28;20094;-65
2023/08/26 07:40:57;;;;;;;5.95;2.72;;;;;;;17.91;66.66;100939.94;5068672;28;20480;-65
2023/08/26 07:43:23;;;;;;;5.50;2.33;;;;;;;17.96;66.64;100939.03;5071827;28;20017;-65
2023/08/26 07:45:49;;;;;;;4.70;2.38;;;;;;;18.03;66.44;100945.13;5072490;28;20062;-65
2023/08/26 07:48:15;;;;;;;5.25;2.72;;;;;;;18.09;66.19;100950.38;5072466;28;20480;-65
2023/08/26 07:50:40;;;;;;;7.85;2.13;;;;;;;18.15;65.92;100948.31;5071640;28;20029;-65
2023/08/26 07:53:05;;;;;;;7.05;2.00;;;;;;;18.24;65.68;100954.13;5072586;28;20021;-65
2023/08/26 07:55:31;;;;;;;6.13;1.95;;;;;;;18.33;65.73;100953.13;5072461;28;20542;-65
2023/08/26 07:57:57;;;;;;;7.07;1.90;;;;;;;18.42;65.67;100958.06;5068834;28;20036;-65
2023/08/26 08:00:23;;;;;;;4.90;1.73;;;;;;;18.52;65.74;100961.56;5062228;28;20509;-65
2023/08/26 08:02:48;;;;;;;4.47;2.38;;;;;;;18.51;65.25;100957.09;5072328;28;20559;-65
2023/08/26 08:05:13;;;;;;;7.90;2.15;;;;;;;18.59;64.90;100956.41;5071560;28;20029;-65
2023/08/26 08:07:39;;;;;;;3.17;2.35;;;;;;;18.57;63.83;100952.22;5072309;28;20048;-65
2023/08/26 08:10:05;;;;;;;4.25;1.58;;;;;;;18.74;64.51;100954.53;5072211;28;20100;-65
2023/08/26 08:12:30;;;;;;;2.70;1.80;;;;;;;18.89;64.71;100946.66;5071362;28;20033;-65
2023/08/26 08:14:55;;;;;;;4.45;1.77;;;;;;;19.06;63.61;100940.50;5072151;28;20024;-65
2023/08/26 08:17:20;;;;;;;5.97;1.70;;;;;;;19.13;63.82;100937.25;5071855;28;20503;-65
2023/08/26 08:19:46;;;;;;;4.18;1.38;;;;;;;19.24;63.75;100938.75;5061915;28;20040;-65
2023/08/26 08:22:13;;;;;;;4.68;1.73;;;;;;;19.25;63.50;100940.41;5072141;28;20028;-65
2023/08/26 08:24:38;;;;;;;5.70;1.50;;;;;;;19.29;62.12;100935.00;5072102;28;20164;-65
2023/08/26 08:27:04;;;;;;;6.25;1.67;;;;;;;19.32;62.34;100938.03;5071331;28;20042;-65
2023/08/26 08:29:29;;;;;;;5.40;1.85;;;;;;;19.38;61.81;100930.34;5072041;28;20029;-65
2023/08/26 08:31:55;;;;;;;6.20;1.63;;;;;;;19.50;62.41;100932.66;5072035;28;20107;-65
2023/08/26 08:34:20;;;;;;;4.70;1.40;;;;;;;19.58;62.07;100935.56;5071341;28;20085;-65
2023/08/26 08:36:46;;;;;;;5.63;2.17;;;;;;;19.68;61.97;100928.94;5069987;28;20555;-65
2023/08/26 08:39:11;;;;;;;3.45;1.33;;;;;;;19.78;61.22;100927.91;5068441;28;20028;-69
2023/08/26 08:41:40;;;;;;;3.13;1.50;;;;;;;19.84;61.18;100935.06;5058952;28;20039;-69
2023/08/26 08:44:12;;;;;;;3.17;1.48;;;;;;;19.88;60.51;100949.38;5087917;28;20036;-65
2023/08/26 08:46:38;;;;;;;2.50;1.40;;;;;;;19.94;60.71;100939.69;5091333;28;20103;-65
2023/08/26 08:49:04;;;;;;;4.88;1.50;;;;;;;19.89;60.37;100936.97;5090414;28;20847;-65
2023/08/26 08:51:30;;;;;;;3.35;1.30;;;;;;;19.99;60.27;100950.84;5054141;28;20124;-65
2023/08/26 08:53:57;;;;;;;5.15;1.60;;;;;;;20.05;59.82;100949.59;5058157;28;20066;-66
2023/08/26 08:56:23;;;;;;;5.63;1.60;;;;;;;20.00;59.96;100953.34;5066493;28;20056;-65
2023/08/26 08:58:51;;;;;;;4.63;1.35;;;;;;;19.96;60.19;100945.81;5052519;28;20483;-67
2023/08/26 09:01:18;;;;;;;2.38;1.13;;;;;;;19.89;60.62;100956.69;5052287;28;20047;-65
2023/08/26 09:03:45;;;;;;;4.95;1.55;;;;;;;19.92;60.77;100956.03;5049280;28;20037;-65
2023/08/26 09:06:11;;;;;;;6.30;1.45;;;;;;;19.93;59.92;100963.38;5067597;28;20029;-66
2023/08/26 09:08:36;;;;;;;4.72;1.30;;;;;;;19.97;59.92;100962.44;5069381;28;20029;-66
2023/08/26 09:11:02;;;;;;;3.85;1.40;;;;;;;20.03;59.77;100960.31;5069507;28;20043;-66
2023/08/26 09:13:28;;;;;;;6.13;1.65;;;;;;;20.21;60.70;100964.19;5071346;28;20035;-67
2023/08/26 09:15:53;;;;;;;4.55;1.48;;;;;;;20.15;59.42;100962.59;5070623;28;20021;-67
2023/08/26 09:18:19;;;;;;;4.22;1.27;;;;;;;20.08;59.96;100972.34;5070273;28;20411;-66
2023/08/26 09:20:47;;;;;;;5.47;1.55;;;;;;;19.95;59.14;100975.16;5064177;28;20499;-66
2023/08/26 09:23:13;;;;;;;5.00;1.58;;;;;;;19.82;58.97;100972.03;5059166;28;20028;-65
2023/08/26 09:25:38;;;;;;;4.72;1.40;;;;;;;19.74;59.82;100957.84;5052891;28;20350;-66
2023/08/26 09:28:04;;;;;;;2.40;1.23;;;;;;;19.76;59.68;100978.88;5049260;28;20047;-66
2023/08/26 09:30:29;;;;;;;4.90;1.50;;;;;;;19.72;59.94;100977.84;5048579;28;20558;-66
2023/08/26 09:32:55;;;;;;;6.45;1.40;;;;;;;19.74;61.23;100974.75;5052946;28;20044;-65
2023/08/26 09:35:21;;;;;;;4.55;1.50;;;;;;;19.69;59.90;100975.69;5070714;28;20472;-66
2023/08/26 09:37:48;;;;;;;3.25;1.17;;;;;;;19.63;59.59;100982.53;5061485;28;20031;-66
2023/08/26 09:40:14;;;;;;;5.30;1.60;;;;;;;19.73;59.04;100970.22;5068246;28;20060;-66
2023/08/26 09:42:40;;;;;;;5.32;1.20;;;;;;;19.89;58.64;100977.25;5067710;28;20082;-66
2023/08/26 09:45:07;;;;;;;3.95;1.20;;;;;;;20.05;58.93;100978.59;5071434;28;20036;-66
2023/08/26 09:47:36;;;;;;;3.50;1.35;;;;;;;20.13;57.88;100982.66;5071270;28;20074;-67
2023/08/26 09:50:03;;;;;;;4.60;1.20;;;;;;;20.22;57.62;100977.13;5071664;28;20100;-66
2023/08/26 09:52:28;;;;;;;4.25;1.30;;;;;;;20.27;57.76;100968.53;5091347;28;20552;-66
2023/08/26 09:54:55;;;;;;;2.38;1.30;;;;;;;20.23;57.65;100973.97;5062568;28;20108;-66
2023/08/26 09:57:21;;;;;;;2.40;1.20;;;;;;;20.16;57.99;100976.41;5053772;28;20086;-66
2023/08/26 09:59:47;;;;;;;3.47;0.95;;;;;;;20.10;57.46;100980.47;5069663;28;20044;-66
2023/08/26 10:02:20;;;;;;;2.75;1.40;;;;;;;20.07;58.09;100981.09;5074424;28;20472;-66
2023/08/26 10:04:47;;;;;;;2.65;1.10;;;;;;;20.01;57.97;100983.19;5073765;28;20048;-66
2023/08/26 10:07:13;;;;;;;2.38;1.08;;;;;;;19.87;57.61;100976.72;5071537;28;20033;-66
2023/08/26 10:10:13;;;;;;;3.67;1.30;;;;;;;19.90;58.97;100981.72;5076568;28;20035;-66
2023/08/26 10:12:46;;;;;;;4.03;1.17;;;;;;;19.92;58.65;100976.59;5092383;28;20072;-66
2023/08/26 10:15:13;;;;;;;2.78;1.20;;;;;;;19.95;58.40;100981.63;5085743;28;20016;-67
2023/08/26 10:17:43;;;;;;;4.20;1.10;;;;;;;19.96;58.57;100979.63;5069696;28;20662;-66
2023/08/26 10:20:11;;;;;;;4.70;1.52;;;;;;;20.06;57.98;100979.44;5058411;28;20033;-67
2023/08/26 10:22:37;;;;;;;3.72;1.45;;;;;;;20.25;58.60;100987.75;5074298;28;20029;-66
2023/08/26 10:25:04;;;;;;;5.05;1.17;;;;;;;20.43;58.10;100989.59;5066653;28;20748;-66
2023/08/26 10:27:31;;;;;;;3.65;1.20;;;;;;;20.55;58.11;100989.09;5063982;28;20085;-67
2023/08/26 10:29:56;;;;;;;4.20;1.30;;;;;;;20.64;57.78;100990.00;5073236;28;20071;-67
2023/08/26 10:32:23;;;;;;;2.05;1.10;;;;;;;20.62;57.06;100980.19;5067995;28;20052;-66
2023/08/26 10:34:56;;;;;;;3.38;1.20;;;;;;;20.52;56.71;100981.28;5070871;28;20413;-66
2023/08/26 10:37:33;;;;;;;2.70;1.13;;;;;;;20.51;58.04;100986.06;5060182;28;20033;-66
2023/08/26 10:40:09;;;;;;;2.03;1.00;;;;;;;20.55;57.98;100991.91;5073104;28;20092;-65
2023/08/26 10:42:38;;;;;;;4.60;1.20;;;;;;;20.74;57.93;100988.94;5067340;28;20029;-68
2023/08/26 10:45:15;;;;;;;2.47;1.10;;;;;;;20.86;57.68;100974.25;5052861;28;20420;-67
2023/08/26 10:47:45;;;;;;;3.13;1.23;;;;;;;20.88;55.85;100983.25;5071898;28;20029;-68
2023/08/26 10:50:27;;;;;;;3.15;0.88;;;;;;;20.95;56.42;100966.72;5073563;28;20071;-68
2023/08/26 10:52:56;;;;;;;2.88;1.15;;;;;;;20.93;54.55;100969.00;5067440;28;20036;-67
2023/08/26 10:55:24;;;;;;;6.20;1.27;;;;;;;20.99;55.16;100967.75;5053527;28;20033;-68
2023/08/26 10:58:07;;;;;;;1.48;1.00;;;;;;;20.94;55.23;100971.50;5052477;28;20083;-67
2023/08/26 11:00:37;;;;;;;1.23;0.95;;;;;;;20.94;54.75;100963.03;5070713;28;20028;-67
2023/08/26 11:03:08;;;;;;;3.58;1.02;;;;;;;21.07;54.74;100962.16;5073632;28;20029;-68
2023/08/26 11:05:36;;;;;;;2.42;1.00;;;;;;;21.13;53.73;100964.84;5059514;28;20129;-67
2023/08/26 11:08:02;;;;;;;2.65;1.10;;;;;;;21.08;54.37;100963.81;5069265;28;20151;-66
2023/08/26 11:10:30;;;;;;;3.13;0.93;;;;;;;21.00;53.48;100970.22;5093297;28;20024;-66
2023/08/26 11:12:55;;;;;;;2.05;0.90;;;;;;;20.99;54.18;100964.91;5093583;28;20025;-67
2023/08/26 11:15:21;;;;;;;4.07;1.17;;;;;;;21.00;54.36;100952.47;5071620;28;20013;-67
2023/08/26 11:17:50;;;;;;;3.13;1.23;;;;;;;21.03;55.51;100958.31;5053186;28;20491;-67
2023/08/26 11:20:18;;;;;;;3.95;1.10;;;;;;;21.18;55.34;100948.63;5067313;28;20040;-67